Time;durP1;ratioP1;P1;durP2;ratioP2;P2;SDS_P1;SDS_P2;PMS_P1;PMS_P2;Temp;Humidity;BMP_temperature;BMP_pressure;BME280_temperature;BME280_humidity;BME280_pressure;Samples;Min_cycle;Max_cycle;Signal;HPM_P1;HPM_P2
2022/12/06 00:02:59;;;;;;;41.00;15.20;;;;;;;-0.53;100.00;100034.43;105994;1288;60500;-72
2022/12/06 00:05:47;;;;;;;43.80;18.50;;;;;;;-0.56;100.00;100031.91;105984;1291;60396;-71
2022/12/06 00:08:36;;;;;;;50.60;19.70;;;;;;;-0.57;100.00;100025.16;105894;1295;74333;-72
2022/12/06 00:11:27;;;;;;;50.60;20.20;;;;;;;-0.55;100.00;100023.17;106016;1297;67564;-72
2022/12/06 00:14:15;;;;;;;47.30;19.70;;;;;;;-0.51;100.00;100025.66;105996;1284;72400;-71
2022/12/06 00:17:02;;;;;;;48.30;20.40;;;;;;;-0.48;100.00;100028.19;105961;1291;59751;-72
2022/12/06 00:19:51;;;;;;;48.70;19.30;;;;;;;-0.44;100.00;100025.77;105988;1291;60040;-72
2022/12/06 00:22:44;;;;;;;47.00;19.60;;;;;;;-0.37;100.00;100024.33;106008;1290;73177;-72
2022/12/06 00:25:34;;;;;;;42.20;17.80;;;;;;;-0.32;100.00;100021.02;105898;1291;67926;-72
2022/12/06 00:28:22;;;;;;;37.50;16.00;;;;;;;-0.30;100.00;100017.48;105993;1291;72402;-72
2022/12/06 00:31:14;;;;;;;30.40;13.00;;;;;;;-0.32;100.00;100017.55;105964;1290;57344;-71
2022/12/06 00:34:03;;;;;;;41.00;18.50;;;;;;;-0.39;100.00;100020.54;105881;1287;60049;-72
2022/12/06 00:36:50;;;;;;;38.70;15.00;;;;;;;-0.43;100.00;100020.17;106012;1284;73948;-71
2022/12/06 00:39:38;;;;;;;40.00;16.20;;;;;;;-0.45;100.00;100017.60;105985;1291;67711;-73
2022/12/06 00:42:25;;;;;;;43.40;17.50;;;;;;;-0.46;100.00;100007.19;105987;1284;72411;-71
2022/12/06 00:45:13;;;;;;;42.00;16.90;;;;;;;-0.43;100.00;100008.84;105250;1290;1002095;-72
2022/12/06 00:48:00;;;;;;;47.90;18.80;;;;;;;-0.40;100.00;100007.33;105996;1291;60008;-72
2022/12/06 00:50:48;;;;;;;33.20;14.60;;;;;;;-0.36;100.00;100003.89;105994;1282;71424;-72
2022/12/06 00:53:36;;;;;;;35.10;15.00;;;;;;;-0.34;100.00;100001.92;106012;1290;68590;-71
2022/12/06 00:56:25;;;;;;;42.50;16.90;;;;;;;-0.34;100.00;99997.56;105990;1292;73737;-71
2022/12/06 00:59:13;;;;;;;42.90;17.90;;;;;;;-0.33;100.00;99995.08;106000;1298;59647;-73
2022/12/06 01:02:00;;;;;;;34.80;14.90;;;;;;;-0.33;100.00;99995.79;106008;1291;60253;-71
2022/12/06 01:04:48;;;;;;;35.20;15.20;;;;;;;-0.34;100.00;99996.16;105989;1282;73949;-71
2022/12/06 01:07:36;;;;;;;37.00;14.80;;;;;;;-0.36;100.00;99993.42;105991;1290;67698;-72
2022/12/06 01:10:23;;;;;;;37.80;16.30;;;;;;;-0.39;100.00;99991.27;105971;1292;71289;-71
2022/12/06 01:13:11;;;;;;;43.60;16.50;;;;;;;-0.43;100.00;99992.98;105978;1291;57330;-72
2022/12/06 01:16:13;;;;;;;39.30;16.70;;;;;;;-0.43;100.00;99986.70;105992;1290;58960;-73
2022/12/06 01:19:05;;;;;;;37.30;13.40;;;;;;;-0.43;100.00;99982.52;105915;1288;73098;-72
2022/12/06 01:21:52;;;;;;;35.70;15.60;;;;;;;-0.45;100.00;99978.56;105990;1298;67984;-72
2022/12/06 01:24:40;;;;;;;36.70;16.00;;;;;;;-0.47;100.00;99971.14;105989;1288;72775;-71
2022/12/06 01:27:27;;;;;;;44.70;17.40;;;;;;;-0.46;100.00;99965.89;105984;1289;59996;-71
2022/12/06 01:30:15;;;;;;;39.30;16.00;;;;;;;-0.44;100.00;99961.63;106019;1290;59105;-71
2022/12/06 01:33:03;;;;;;;46.40;19.00;;;;;;;-0.42;100.00;99955.09;105981;1274;74249;-71
2022/12/06 01:35:50;;;;;;;38.20;16.90;;;;;;;-0.39;100.00;99953.25;105990;1291;66998;-72
2022/12/06 01:38:38;;;;;;;42.60;17.30;;;;;;;-0.38;100.00;99950.44;105235;1288;1002557;-72
2022/12/06 01:41:27;;;;;;;38.50;14.80;;;;;;;-0.38;100.00;99949.23;105983;1290;59111;-71
2022/12/06 01:44:44;;;;;;;32.60;14.50;;;;;;;-0.36;100.00;99950.02;106001;1292;59462;-71
2022/12/06 01:47:42;;;;;;;37.60;16.30;;;;;;;-0.38;100.00;99942.06;105971;1290;73258;-71
2022/12/06 01:50:31;;;;;;;35.90;14.80;;;;;;;-0.39;100.00;99940.19;106009;1298;66603;-72
2022/12/06 01:53:19;;;;;;;33.70;14.60;;;;;;;-0.38;100.00;99937.73;105862;1292;73929;-70
2022/12/06 01:56:12;;;;;;;45.90;17.20;;;;;;;-0.40;100.00;99934.63;105797;1292;60045;-72
2022/12/06 01:59:00;;;;;;;34.70;15.30;;;;;;;-0.38;100.00;99932.30;105810;1299;60037;-71
2022/12/06 02:01:48;;;;;;;36.50;14.20;;;;;;;-0.37;100.00;99923.39;105987;1282;73886;-70
2022/12/06 02:04:36;;;;;;;41.10;15.70;;;;;;;-0.38;100.00;99917.13;106014;1291;66278;-71
2022/12/06 02:07:26;;;;;;;38.50;15.90;;;;;;;-0.36;100.00;99914.96;105924;1294;73778;-71
2022/12/06 02:10:13;;;;;;;37.50;16.80;;;;;;;-0.37;100.00;99908.92;105789;1291;58481;-70
2022/12/06 02:13:02;;;;;;;37.50;15.90;;;;;;;-0.39;100.00;99898.86;106002;1284;58920;-71
2022/12/06 02:16:30;;;;;;;38.00;15.70;;;;;;;-0.38;100.00;99896.58;105975;1291;74242;-70
2022/12/06 02:19:32;;;;;;;30.20;12.30;;;;;;;-0.42;100.00;99892.52;105925;1284;69419;-71
2022/12/06 02:23:01;;;;;;;30.50;12.40;;;;;;;-0.46;100.00;99887.80;105898;1290;72595;-71
2022/12/06 02:26:10;;;;;;;36.20;15.20;;;;;;;-0.47;100.00;99884.85;105355;1300;60287;-71
2022/12/06 02:29:44;;;;;;;26.90;10.10;;;;;;;-0.45;100.00;99884.80;105496;1297;59031;-71
2022/12/06 02:32:56;;;;;;;40.30;15.50;;;;;;;-0.45;100.00;99880.80;105422;1297;73250;-71
2022/12/06 02:36:01;;;;;;;26.10;10.60;;;;;;;-0.44;100.00;99874.48;105471;1297;69194;-70
2022/12/06 02:39:02;;;;;;;38.70;14.60;;;;;;;-0.44;100.00;99868.55;105311;1297;72869;-71
2022/12/06 02:42:10;;;;;;;38.60;15.10;;;;;;;-0.43;100.00;99873.55;105452;1297;58813;-71
2022/12/06 02:45:06;;;;;;;36.80;15.30;;;;;;;-0.41;100.00;99871.39;105473;1290;60481;-71
2022/12/06 02:47:56;;;;;;;32.80;14.30;;;;;;;-0.42;100.00;99870.36;105348;1304;74273;-72
2022/12/06 02:50:58;;;;;;;41.40;16.90;;;;;;;-0.41;100.00;99868.44;105373;1297;68071;-71
2022/12/06 02:53:51;;;;;;;36.10;15.70;;;;;;;-0.37;100.00;99867.43;105280;1300;71662;-71
2022/12/06 02:56:39;;;;;;;35.00;13.90;;;;;;;-0.35;100.00;99867.35;105276;1300;59035;-70
2022/12/06 02:59:27;;;;;;;41.40;16.30;;;;;;;-0.34;100.00;99860.68;105356;1294;59731;-71
2022/12/06 03:02:15;;;;;;;39.90;15.10;;;;;;;-0.30;100.00;99860.90;105609;1291;70702;-71
2022/12/06 03:05:16;;;;;;;38.60;16.30;;;;;;;-0.26;100.00;99863.91;105913;1290;68679;-71
2022/12/06 03:08:13;;;;;;;30.50;11.30;;;;;;;-0.24;100.00;99861.20;105793;1286;72751;-70
2022/12/06 03:11:01;;;;;;;41.30;15.30;;;;;;;-0.25;100.00;99860.70;105862;1294;57780;-70
2022/12/06 03:14:11;;;;;;;39.80;15.50;;;;;;;-0.27;100.00;99857.83;105166;1284;1002705;-73
2022/12/06 03:17:10;;;;;;;35.80;13.00;;;;;;;-0.26;100.00;99858.30;105900;1289;73184;-70
2022/12/06 03:20:06;;;;;;;37.40;15.00;;;;;;;-0.24;100.00;99857.55;105904;1294;68115;-70
2022/12/06 03:23:04;;;;;;;42.50;17.10;;;;;;;-0.23;100.00;99853.85;105858;1285;72828;-70
2022/12/06 03:25:57;;;;;;;48.20;16.70;;;;;;;-0.18;100.00;99852.79;105899;1291;60032;-71
2022/12/06 03:28:47;;;;;;;47.30;16.60;;;;;;;-0.14;100.00;99849.87;105903;1282;61480;-70
2022/12/06 03:31:40;;;;;;;41.80;16.30;;;;;;;-0.13;100.00;99851.73;105904;1285;72125;-71
2022/12/06 03:34:33;;;;;;;44.90;16.90;;;;;;;-0.09;100.00;99850.90;105941;1291;67865;-70
2022/12/06 03:37:24;;;;;;;45.10;17.30;;;;;;;-0.06;100.00;99843.45;105799;1294;70377;-71
2022/12/06 03:40:16;;;;;;;42.70;17.30;;;;;;;-0.05;100.00;99845.33;105992;1291;58018;-71
2022/12/06 03:43:05;;;;;;;45.40;17.10;;;;;;;-0.05;100.00;99842.89;105983;1290;61339;-71
2022/12/06 03:46:10;;;;;;;41.30;15.80;;;;;;;-0.05;100.00;99841.67;105267;1288;1002568;-71
2022/12/06 03:49:03;;;;;;;41.70;16.70;;;;;;;-0.03;100.00;99838.65;105808;1291;66526;-72
2022/12/06 03:51:51;;;;;;;33.90;13.50;;;;;;;-0.02;100.00;99837.19;105877;1297;73817;-71
2022/12/06 03:54:40;;;;;;;48.20;17.70;;;;;;;-0.02;100.00;99835.09;105901;1285;59984;-72
2022/12/06 03:57:28;;;;;;;47.80;18.80;;;;;;;-0.01;100.00;99834.19;106019;1289;59049;-71
2022/12/06 04:00:15;;;;;;;42.00;16.00;;;;;;;-0.01;100.00;99831.20;106002;1290;72075;-71
2022/12/06 04:03:03;;;;;;;48.80;18.10;;;;;;;-0.01;100.00;99832.27;105980;1292;67751;-72
2022/12/06 04:05:50;;;;;;;50.60;17.80;;;;;;;-0.01;100.00;99826.34;105965;1298;73789;-71
2022/12/06 04:08:39;;;;;;;48.90;17.50;;;;;;;-0.02;100.00;99821.66;105973;1292;58748;-71
2022/12/06 04:11:26;;;;;;;37.90;14.30;;;;;;;0.01;100.00;99818.96;105980;1289;61570;-70
2022/12/06 04:14:14;;;;;;;40.10;14.70;;;;;;;0.01;100.00;99820.85;106022;1284;70751;-71
2022/12/06 04:20:08;;;;;;;41.40;15.50;;;;;;;-0.07;100.00;99821.67;106010;1283;73438;-71
2022/12/06 04:23:04;;;;;;;42.70;15.40;;;;;;;-0.11;100.00;99821.30;105916;1298;57118;-71
2022/12/06 04:25:55;;;;;;;42.00;16.00;;;;;;;-0.12;100.00;99823.98;106008;1288;60584;-72
2022/12/06 04:43:40;;;;;;;46.10;18.30;;;;;;;-0.19;100.00;99818.99;105987;1291;59203;-71
2022/12/06 04:44:24;;;;;;;44.70;16.10;;;;;;;-0.19;100.00;99818.65;105950;1284;73990;-71
2022/12/06 04:47:11;;;;;;;53.60;19.10;;;;;;;-0.19;100.00;99814.64;105968;1284;69023;-72
2022/12/06 04:49:59;;;;;;;42.30;15.80;;;;;;;-0.17;100.00;99816.13;105986;1284;72712;-70
2022/12/06 04:52:48;;;;;;;49.30;18.70;;;;;;;-0.15;100.00;99809.25;106005;1292;58767;-72
2022/12/06 04:55:35;;;;;;;50.60;18.00;;;;;;;-0.12;100.00;99810.02;105986;1290;61617;-71
2022/12/06 04:58:23;;;;;;;45.50;16.60;;;;;;;-0.11;100.00;99811.73;105986;1291;73882;-72
2022/12/06 05:01:10;;;;;;;48.90;19.00;;;;;;;-0.11;100.00;99811.56;106014;1290;68101;-72
2022/12/06 05:03:58;;;;;;;52.50;19.60;;;;;;;-0.06;100.00;99815.38;106004;1291;72545;-71
2022/12/06 05:06:46;;;;;;;47.50;18.00;;;;;;;-0.04;100.00;99807.47;105987;1291;58662;-71
2022/12/06 05:09:33;;;;;;;54.70;19.00;;;;;;;-0.06;100.00;99800.73;105968;1291;61459;-71
2022/12/06 05:12:21;;;;;;;42.90;17.10;;;;;;;-0.06;100.00;99792.86;105994;1292;71738;-71
2022/12/06 05:15:09;;;;;;;50.80;18.00;;;;;;;-0.07;100.00;99786.98;106005;1284;67841;-71
2022/12/06 05:18:00;;;;;;;49.00;19.00;;;;;;;-0.06;100.00;99783.77;105979;1296;73489;-71
2022/12/06 05:20:48;;;;;;;46.70;16.90;;;;;;;-0.06;100.00;99782.25;106004;1292;58781;-71
2022/12/06 05:23:36;;;;;;;54.70;20.10;;;;;;;-0.07;100.00;99778.61;105894;1291;60287;-71
2022/12/06 05:26:27;;;;;;;51.30;19.50;;;;;;;-0.08;100.00;99777.94;105990;1290;74155;-71
2022/12/06 05:29:15;;;;;;;48.20;18.50;;;;;;;-0.07;100.00;99774.25;106010;1291;67853;-71
2022/12/06 05:32:03;;;;;;;55.40;21.10;;;;;;;-0.06;100.00;99767.23;105965;1291;73365;-70
2022/12/06 05:34:50;;;;;;;53.40;21.30;;;;;;;-0.04;100.00;99760.34;105953;1282;58920;-71
2022/12/06 05:37:38;;;;;;;48.80;18.20;;;;;;;-0.01;100.00;99759.52;105972;1284;61536;-72
2022/12/06 05:40:26;;;;;;;56.20;20.10;;;;;;;0.02;100.00;99758.02;105996;1291;71641;-71
2022/12/06 05:43:14;;;;;;;51.50;19.70;;;;;;;0.06;100.00;99757.20;105970;1290;69156;-71
2022/12/06 05:46:01;;;;;;;54.50;20.40;;;;;;;0.08;100.00;99755.53;105921;1284;72861;-73
2022/12/06 05:48:49;;;;;;;57.60;19.50;;;;;;;0.14;100.00;99753.90;105704;1294;58175;-71
2022/12/06 05:51:37;;;;;;;44.70;17.00;;;;;;;0.17;100.00;99754.98;105996;1284;60664;-71
2022/12/06 05:54:24;;;;;;;53.20;17.60;;;;;;;0.19;100.00;99760.01;105999;1291;71075;-74
2022/12/06 05:57:12;;;;;;;45.20;17.60;;;;;;;0.18;100.00;99760.71;105902;1295;67117;-71
2022/12/06 05:59:59;;;;;;;61.80;21.20;;;;;;;0.15;100.00;99759.44;105917;1291;71373;-72
2022/12/06 06:02:53;;;;;;;55.30;20.40;;;;;;;0.15;100.00;99759.95;105945;1292;60040;-72
2022/12/06 06:05:49;;;;;;;62.40;20.20;;;;;;;0.16;100.00;99754.84;105985;1284;59047;-72
2022/12/06 06:08:36;;;;;;;58.70;20.10;;;;;;;0.20;100.00;99749.45;105875;1291;73031;-72
2022/12/06 06:11:24;;;;;;;57.70;21.00;;;;;;;0.24;100.00;99749.13;105970;1290;67719;-73
2022/12/06 06:14:12;;;;;;;44.90;15.90;;;;;;;0.26;100.00;99746.07;105936;1292;73510;-70
2022/12/06 06:16:59;;;;;;;51.20;19.00;;;;;;;0.26;100.00;99745.88;105966;1291;57270;-70
2022/12/06 06:19:47;;;;;;;52.80;19.00;;;;;;;0.25;100.00;99741.77;105878;1290;60638;-72
2022/12/06 06:22:39;;;;;;;53.50;18.90;;;;;;;0.24;100.00;99738.98;105952;1291;74259;-71
2022/12/06 06:25:27;;;;;;;54.00;19.80;;;;;;;0.24;100.00;99739.19;105858;1290;68176;-71
2022/12/06 06:28:15;;;;;;;54.60;21.20;;;;;;;0.24;100.00;99740.05;105957;1295;73703;-70
2022/12/06 06:31:07;;;;;;;49.70;18.70;;;;;;;0.22;100.00;99745.02;105976;1292;57083;-72
2022/12/06 06:33:54;;;;;;;50.50;18.40;;;;;;;0.20;100.00;99744.25;105969;1292;59085;-72
2022/12/06 06:36:42;;;;;;;58.90;20.00;;;;;;;0.18;100.00;99749.21;105968;1288;71727;-71
2022/12/06 06:39:32;;;;;;;49.00;18.90;;;;;;;0.16;100.00;99747.52;105225;1298;1014968;-71
2022/12/06 06:42:20;;;;;;;52.10;18.70;;;;;;;0.16;100.00;99749.80;105971;1291;71512;-72
2022/12/06 06:45:08;;;;;;;52.90;18.50;;;;;;;0.15;100.00;99745.98;105969;1288;58517;-72
2022/12/06 06:47:56;;;;;;;51.10;19.00;;;;;;;0.15;100.00;99748.44;105912;1291;59426;-73
2022/12/06 06:50:44;;;;;;;55.60;19.70;;;;;;;0.15;100.00;99747.90;105846;1292;74066;-72
2022/12/06 06:53:31;;;;;;;61.00;22.40;;;;;;;0.16;100.00;99752.23;105980;1297;67879;-73
2022/12/06 06:56:19;;;;;;;61.20;21.70;;;;;;;0.18;100.00;99750.27;105898;1284;72902;-71
2022/12/06 06:59:07;;;;;;;60.80;21.90;;;;;;;0.21;100.00;99751.89;105978;1284;57411;-74
2022/12/06 07:01:54;;;;;;;51.10;18.80;;;;;;;0.22;100.00;99749.91;106004;1298;60376;-71
2022/12/06 07:04:44;;;;;;;57.20;19.50;;;;;;;0.23;100.00;99749.36;105983;1291;74327;-72
2022/12/06 07:07:31;;;;;;;57.00;20.90;;;;;;;0.20;100.00;99748.24;105991;1290;67873;-73
2022/12/06 07:10:19;;;;;;;42.90;15.40;;;;;;;0.23;100.00;99751.98;105603;1295;72923;-70
2022/12/06 07:13:07;;;;;;;61.70;20.00;;;;;;;0.22;100.00;99750.44;105641;1294;57342;-72
2022/12/06 07:15:55;;;;;;;54.40;19.90;;;;;;;0.23;100.00;99747.25;105621;1295;61257;-70
2022/12/06 07:18:42;;;;;;;60.30;23.50;;;;;;;0.25;100.00;99744.90;105588;1293;71904;-71
2022/12/06 07:21:30;;;;;;;45.80;18.20;;;;;;;0.24;100.00;99751.56;105599;1295;67612;-72
2022/12/06 07:24:18;;;;;;;49.50;19.00;;;;;;;0.21;100.00;99749.27;105627;1287;73983;-71
2022/12/06 07:27:05;;;;;;;55.00;21.30;;;;;;;0.18;100.00;99745.88;105653;1294;60013;-73
2022/12/06 07:29:53;;;;;;;49.70;18.70;;;;;;;0.18;100.00;99745.70;105640;1293;60530;-72
2022/12/06 07:32:40;;;;;;;58.00;20.50;;;;;;;0.19;100.00;99747.10;105663;1295;72774;-70
2022/12/06 07:35:28;;;;;;;44.70;18.40;;;;;;;0.19;100.00;99749.89;105634;1295;67018;-71
2022/12/06 07:38:35;;;;;;;49.50;20.40;;;;;;;0.18;100.00;99747.47;105646;1293;72580;-72
2022/12/06 07:45:03;;;;;;;50.50;19.80;;;;;;;0.24;100.00;99734.65;105893;1292;60145;-70
2022/12/06 07:47:50;;;;;;;46.90;18.90;;;;;;;0.29;100.00;99730.41;105969;1295;73393;-73
2022/12/06 07:50:38;;;;;;;41.40;15.20;;;;;;;0.35;100.00;99726.88;105974;1296;67906;-72
2022/12/06 07:53:25;;;;;;;50.90;20.70;;;;;;;0.40;100.00;99724.23;105983;1275;72746;-72
2022/12/06 07:56:13;;;;;;;47.00;18.00;;;;;;;0.47;100.00;99727.10;105955;1287;58748;-73
2022/12/06 07:59:01;;;;;;;45.00;18.40;;;;;;;0.53;100.00;99729.63;105970;1295;60161;-72
2022/12/06 08:01:51;;;;;;;39.80;15.50;;;;;;;0.59;100.00;99730.77;105245;1299;1002091;-72
2022/12/06 08:04:39;;;;;;;40.30;16.70;;;;;;;0.62;100.00;99734.32;105860;1291;67035;-71
2022/12/06 08:07:27;;;;;;;47.60;18.90;;;;;;;0.64;100.00;99737.71;105863;1292;70241;-72
2022/12/06 08:10:14;;;;;;;47.50;19.30;;;;;;;0.69;100.00;99739.45;105959;1291;60017;-71
2022/12/06 08:13:02;;;;;;;51.00;20.50;;;;;;;0.75;100.00;99736.40;105958;1291;61474;-71
2022/12/06 08:15:50;;;;;;;49.00;21.40;;;;;;;0.83;100.00;99732.73;105980;1292;71463;-73
2022/12/06 08:18:39;;;;;;;46.50;19.80;;;;;;;0.88;100.00;99736.36;105950;1290;68707;-72
2022/12/06 08:21:27;;;;;;;55.20;20.90;;;;;;;0.92;100.00;99729.55;105950;1292;72523;-72
2022/12/06 08:24:14;;;;;;;47.80;20.40;;;;;;;0.94;100.00;99728.42;105874;1290;57211;-71
2022/12/06 08:27:01;;;;;;;54.40;21.50;;;;;;;0.99;100.00;99727.16;105992;1284;59034;-73
2022/12/06 08:29:49;;;;;;;46.90;19.50;;;;;;;1.07;100.00;99718.79;106006;1298;74469;-71
2022/12/06 08:32:37;;;;;;;36.40;14.60;;;;;;;1.13;100.00;99722.54;105963;1290;68674;-72
2022/12/06 08:35:24;;;;;;;53.60;20.80;;;;;;;1.14;100.00;99721.61;105936;1292;71797;-71
2022/12/06 08:38:15;;;;;;;53.30;22.50;;;;;;;1.11;100.00;99720.35;105957;1292;59570;-71
2022/12/06 08:41:04;;;;;;;52.90;21.20;;;;;;;1.13;100.00;99716.22;105945;1296;60515;-72
2022/12/06 08:43:52;;;;;;;50.30;22.20;;;;;;;1.18;100.00;99717.75;105871;1292;72328;-70
2022/12/06 08:46:40;;;;;;;53.40;22.00;;;;;;;1.22;100.00;99726.15;105956;1290;68665;-71
2022/12/06 08:49:29;;;;;;;56.00;21.90;;;;;;;1.22;99.99;99727.55;105979;1290;71456;-71
2022/12/06 08:52:17;;;;;;;54.20;21.70;;;;;;;1.21;99.91;99723.77;105957;1297;57555;-72
2022/12/06 08:55:05;;;;;;;51.80;20.10;;;;;;;1.22;99.96;99726.52;105935;1288;58972;-72
2022/12/06 08:57:53;;;;;;;47.40;19.70;;;;;;;1.22;100.00;99726.33;105886;1290;74316;-70
2022/12/06 09:00:41;;;;;;;42.70;17.40;;;;;;;1.22;99.99;99725.63;105955;1293;67017;-75
2022/12/06 09:03:28;;;;;;;52.90;21.60;;;;;;;1.22;99.96;99727.22;105965;1290;72564;-71
2022/12/06 09:06:18;;;;;;;57.60;23.30;;;;;;;1.18;99.38;99729.11;105966;1288;58564;-70
2022/12/06 09:09:07;;;;;;;59.60;22.60;;;;;;;1.18;99.90;99725.09;105880;1290;61491;-71
2022/12/06 09:11:55;;;;;;;53.90;21.60;;;;;;;1.24;100.00;99723.98;105972;1295;73266;-71
2022/12/06 09:14:43;;;;;;;58.10;23.90;;;;;;;1.26;99.57;99721.64;105941;1290;69084;-71
2022/12/06 09:17:30;;;;;;;45.90;19.50;;;;;;;1.27;99.53;99716.84;105950;1287;72448;-70
2022/12/06 09:20:18;;;;;;;49.50;21.60;;;;;;;1.30;99.49;99709.19;105869;1292;57289;-71
2022/12/06 09:23:06;;;;;;;42.10;18.60;;;;;;;1.36;99.74;99710.13;105982;1292;60463;-70
2022/12/06 09:25:53;;;;;;;52.10;21.00;;;;;;;1.36;99.05;99707.50;105991;1295;73017;-71
2022/12/06 09:28:43;;;;;;;51.10;21.40;;;;;;;1.37;98.98;99704.34;105955;1287;67798;-71
2022/12/06 09:31:31;;;;;;;57.20;21.50;;;;;;;1.40;99.16;99702.08;105990;1290;72853;-71
2022/12/06 09:34:19;;;;;;;55.70;23.10;;;;;;;1.44;98.92;99699.27;105852;1292;59934;-71
2022/12/06 09:37:11;;;;;;;52.20;22.10;;;;;;;1.50;99.00;99696.55;105988;1288;58915;-71
2022/12/06 09:40:10;;;;;;;56.70;22.40;;;;;;;1.58;98.97;99689.03;105874;1292;71442;-70
2022/12/06 09:43:13;;;;;;;52.80;21.70;;;;;;;1.66;98.42;99685.86;105987;1282;68001;-71
2022/12/06 09:46:03;;;;;;;52.90;22.20;;;;;;;1.69;97.90;99686.24;105771;1303;73950;-70
2022/12/06 09:49:08;;;;;;;47.60;20.30;;;;;;;1.68;97.63;99682.61;105251;1292;1002429;-72
2022/12/06 09:52:20;;;;;;;56.50;21.30;;;;;;;1.65;97.36;99680.98;105891;1292;61529;-71
2022/12/06 09:55:46;;;;;;;60.70;24.30;;;;;;;1.64;97.68;99676.34;105898;1292;73054;-71
2022/12/06 09:59:01;;;;;;;60.20;22.70;;;;;;;1.68;97.77;99675.61;105963;1292;67090;-70
2022/12/06 10:01:59;;;;;;;53.70;21.60;;;;;;;1.72;97.94;99664.95;105974;1290;72447;-70
2022/12/06 10:05:10;;;;;;;59.30;21.50;;;;;;;1.74;97.32;99664.00;105864;1294;58958;-72
2022/12/06 10:08:55;;;;;;;56.90;21.80;;;;;;;1.75;97.52;99654.85;105983;1289;59485;-71
2022/12/06 10:12:08;;;;;;;57.40;23.30;;;;;;;1.77;97.37;99654.92;105868;1284;73322;-71
2022/12/06 10:15:23;;;;;;;51.50;22.20;;;;;;;1.77;97.12;99656.48;105862;1295;68047;-70
2022/12/06 10:18:23;;;;;;;62.00;23.30;;;;;;;1.74;96.98;99652.43;105976;1292;74002;-71
2022/12/06 10:21:50;;;;;;;63.00;24.50;;;;;;;1.74;97.08;99643.36;105955;1292;59843;-70
2022/12/06 10:25:29;;;;;;;56.50;23.10;;;;;;;1.77;96.66;99635.65;105882;1281;60183;-69
2022/12/06 10:28:29;;;;;;;60.50;24.70;;;;;;;1.79;97.25;99630.88;105854;1292;74083;-70
2022/12/06 10:31:49;;;;;;;55.70;22.90;;;;;;;1.86;97.66;99623.89;105980;1292;67559;-70
2022/12/06 10:34:43;;;;;;;51.50;23.10;;;;;;;1.92;97.05;99619.05;105876;1294;73599;-70
2022/12/06 10:38:30;;;;;;;46.90;19.40;;;;;;;1.97;96.70;99618.65;105970;1292;57249;-71
2022/12/06 10:41:29;;;;;;;41.70;18.50;;;;;;;1.99;96.54;99614.98;105413;1296;60321;-71
2022/12/06 10:44:24;;;;;;;51.30;20.00;;;;;;;1.98;96.18;99614.02;105338;1297;72797;-71
2022/12/06 10:47:26;;;;;;;50.90;19.90;;;;;;;1.94;95.77;99615.64;105372;1289;66570;-71
2022/12/06 10:50:24;;;;;;;57.00;22.60;;;;;;;1.88;95.85;99615.21;104348;1303;1002448;-70
2022/12/06 10:53:16;;;;;;;56.10;23.80;;;;;;;1.84;95.79;99608.92;105333;1290;57697;-70
2022/12/06 10:56:15;;;;;;;54.70;21.90;;;;;;;1.81;95.95;99606.80;105352;1298;61182;-69
2022/12/06 10:59:36;;;;;;;48.30;18.60;;;;;;;1.79;96.18;99606.92;105305;1298;72856;-72
2022/12/06 11:03:15;;;;;;;48.40;20.20;;;;;;;1.74;96.08;99599.28;105444;1297;67978;-71
2022/12/06 11:06:20;;;;;;;49.90;19.20;;;;;;;1.64;95.89;99597.30;105315;1296;74088;-71
2022/12/06 11:09:42;;;;;;;55.10;21.40;;;;;;;1.57;96.45;99598.70;105453;1297;58474;-71
2022/12/06 11:12:37;;;;;;;52.30;23.30;;;;;;;1.56;97.04;99594.88;105448;1297;60173;-71
2022/12/06 11:15:31;;;;;;;56.00;23.30;;;;;;;1.60;97.32;99600.48;105556;1299;74323;-72
2022/12/06 11:18:19;;;;;;;55.30;23.30;;;;;;;1.65;97.63;99597.91;105908;1291;66296;-73
2022/12/06 11:21:47;;;;;;;59.10;23.20;;;;;;;1.70;97.34;99595.76;105966;1290;72782;-70
2022/12/06 11:24:43;;;;;;;51.80;21.20;;;;;;;1.75;97.37;99595.02;105897;1297;57252;-70
2022/12/06 11:27:48;;;;;;;43.30;18.70;;;;;;;1.76;96.93;99592.70;105734;1297;59256;-72
2022/12/06 11:30:36;;;;;;;54.00;19.00;;;;;;;1.75;96.81;99588.75;105791;1287;73803;-70
2022/12/06 11:33:32;;;;;;;59.80;25.10;;;;;;;1.74;96.71;99581.95;105865;1292;68976;-70
2022/12/06 11:36:23;;;;;;;56.00;24.20;;;;;;;1.73;96.66;99579.75;105970;1282;73007;-71
2022/12/06 11:39:13;;;;;;;58.20;23.90;;;;;;;1.71;96.70;99584.54;105730;1293;59016;-70
2022/12/06 11:42:04;;;;;;;55.50;24.80;;;;;;;1.68;96.63;99585.90;105848;1297;60118;-69
2022/12/06 11:45:15;;;;;;;58.00;25.60;;;;;;;1.65;96.95;99583.41;105777;1290;72853;-69
2022/12/06 11:48:15;;;;;;;53.00;21.20;;;;;;;1.60;96.86;99588.56;105892;1287;68163;-71
2022/12/06 11:51:07;;;;;;;58.70;24.60;;;;;;;1.52;97.10;99593.84;105886;1291;71403;-70
2022/12/06 11:54:21;;;;;;;57.70;24.50;;;;;;;1.50;97.49;99595.52;105879;1287;57444;-69
2022/12/06 11:57:21;;;;;;;63.00;25.80;;;;;;;1.49;97.73;99591.17;105885;1291;61281;-71
2022/12/06 12:00:10;;;;;;;63.40;26.70;;;;;;;1.50;97.73;99589.02;105875;1292;74249;-72
2022/12/06 12:03:00;;;;;;;48.10;20.70;;;;;;;1.55;98.06;99584.11;105870;1284;69072;-71
2022/12/06 12:05:48;;;;;;;55.40;22.80;;;;;;;1.54;97.80;99585.36;105228;1289;1002976;-70
2022/12/06 12:08:36;;;;;;;64.20;25.50;;;;;;;1.55;98.11;99579.03;105878;1292;57393;-71
2022/12/06 12:11:36;;;;;;;53.60;22.00;;;;;;;1.56;98.14;99576.02;106021;1291;60470;-71
2022/12/06 12:14:32;;;;;;;62.60;25.40;;;;;;;1.54;97.93;99572.41;105881;1285;72169;-71
2022/12/06 12:17:27;;;;;;;63.70;25.10;;;;;;;1.52;97.73;99571.29;105794;1291;66777;-71
2022/12/06 12:20:25;;;;;;;62.00;24.10;;;;;;;1.49;97.80;99561.79;105742;1292;72500;-71
2022/12/06 12:23:28;;;;;;;65.20;26.60;;;;;;;1.49;98.07;99559.05;105771;1290;57351;-70
2022/12/06 12:26:19;;;;;;;70.20;25.10;;;;;;;1.51;98.22;99555.96;105959;1291;58737;-71
2022/12/06 12:29:07;;;;;;;57.80;24.30;;;;;;;1.51;98.18;99552.98;105869;1292;71368;-69
2022/12/06 12:31:58;;;;;;;60.50;22.90;;;;;;;1.50;98.15;99552.67;106017;1288;65399;-71
2022/12/06 12:34:47;;;;;;;52.10;21.40;;;;;;;1.43;98.09;99553.71;105946;1291;72307;-70
2022/12/06 12:37:36;;;;;;;49.20;21.90;;;;;;;1.37;98.64;99555.74;105894;1292;57565;-71
2022/12/06 12:40:35;;;;;;;53.00;22.20;;;;;;;1.36;98.93;99553.52;105903;1275;57972;-71
2022/12/06 12:43:30;;;;;;;54.40;22.10;;;;;;;1.37;99.22;99538.08;105757;1291;74287;-71
2022/12/06 12:46:20;;;;;;;57.10;24.20;;;;;;;1.37;98.96;99532.67;105835;1290;68086;-70
2022/12/06 12:49:35;;;;;;;60.60;25.50;;;;;;;1.39;99.04;99529.80;105881;1296;73435;-71
2022/12/06 12:52:36;;;;;;;57.40;24.50;;;;;;;1.43;99.08;99528.91;105882;1284;57946;-70
2022/12/06 12:55:28;;;;;;;56.10;24.30;;;;;;;1.49;99.09;99525.63;105794;1295;58648;-71
2022/12/06 12:58:16;;;;;;;50.10;22.30;;;;;;;1.55;99.21;99522.02;105763;1292;73588;-72
2022/12/06 13:01:33;;;;;;;54.90;22.70;;;;;;;1.61;99.05;99517.53;105940;1293;67678;-71
2022/12/06 13:04:40;;;;;;;54.30;22.80;;;;;;;1.65;98.80;99511.88;105905;1298;73478;-71
2022/12/06 13:07:35;;;;;;;47.40;19.20;;;;;;;1.69;98.50;99506.61;105963;1291;57824;-70
2022/12/06 13:10:32;;;;;;;51.30;21.70;;;;;;;1.68;98.16;99500.54;105794;1292;61131;-70
2022/12/06 13:13:29;;;;;;;55.00;25.40;;;;;;;1.69;98.49;99498.73;105889;1285;72986;-70
2022/12/06 13:16:31;;;;;;;53.70;24.20;;;;;;;1.73;98.66;99495.77;105806;1294;68007;-71
2022/12/06 13:19:35;;;;;;;59.10;24.20;;;;;;;1.73;97.97;99490.34;105857;1282;72157;-71
2022/12/06 13:22:29;;;;;;;52.90;23.50;;;;;;;1.71;98.15;99489.91;105888;1290;59956;-71
2022/12/06 13:25:17;;;;;;;53.00;23.40;;;;;;;1.72;98.33;99489.20;105843;1290;60524;-72
2022/12/06 13:28:18;;;;;;;51.60;23.60;;;;;;;1.73;98.41;99496.33;105902;1292;73068;-72